NCAR-RAP Real-Time Weather Data

Output produced by METARs form (01 September 2014  23:22 UTC)
found at http://weather.rap.ucar.edu/surface/
 
Conditions at: K4O4 observed 01 September 2014  22:55 UTC
Temperature: 33.0°C (91°F)
Dewpoint: 18.0°C (64°F) [RH = 41%]
Pressure (altimeter): 29.89 inches Hg (1012.3 mb)
Winds: from the SSE (160 degrees) at 10 MPH (9 knots; 4.7 m/s)
Visibility: 10 or more miles (16+ km)
Ceiling: at least 12,000 feet AGL
Clouds: sky clear below 12,000 feet AGL
Present Weather: automated observation with no human augmentation;
there may or may not be significant weather present at this time
K4O4 012255Z AUTO 16009KT 10SM CLR 33/18 A2989 RMK AO2